Time;durP1;ratioP1;P1;durP2;ratioP2;P2;SDS_P1;SDS_P2;PMS_P1;PMS_P2;Temp;Humidity;BMP_temperature;BMP_pressure;BME280_temperature;BME280_humidity;BME280_pressure;Samples;Min_cycle;Max_cycle;Signal;HPM_P1;HPM_P2
2022/03/14 00:00:46;;;;;;;5.77;4.33;;;;;;;;;;5040324;28;20044;-65
2022/03/14 00:03:14;;;;;;;6.70;4.30;;;;;;;;;;5042544;28;20041;-65
2022/03/14 00:05:40;;;;;;;5.67;3.90;;;;;;;;;;5041012;28;20052;-65
2022/03/14 00:08:07;;;;;;;6.03;4.30;;;;;;;;;;5043129;28;20052;-65
2022/03/14 00:10:36;;;;;;;10.07;4.50;;;;;;;;;;5048274;28;20045;-65
2022/03/14 00:13:03;;;;;;;7.60;4.07;;;;;;;;;;5048946;28;20098;-65
2022/03/14 00:15:33;;;;;;;5.93;4.60;;;;;;;;;;5048455;28;20041;-65
2022/03/14 00:18:01;;;;;;;4.80;3.57;;;;;;;;;;5049118;28;20059;-65
2022/03/14 00:20:27;;;;;;;7.97;3.70;;;;;;;;;;5047198;28;20045;-65
2022/03/14 00:22:53;;;;;;;6.23;3.43;;;;;;;;;;5047878;28;20045;-65
2022/03/14 00:25:19;;;;;;;6.80;3.97;;;;;;;;;;5045852;28;20045;-65
2022/03/14 00:27:46;;;;;;;8.30;3.33;;;;;;;;;;5048143;28;20100;-65
2022/03/14 00:30:13;;;;;;;5.27;3.27;;;;;;;;;;5046253;28;20517;-65
2022/03/14 00:32:40;;;;;;;5.73;3.13;;;;;;;;;;5048690;28;20218;-65
2022/03/14 00:35:07;;;;;;;4.87;3.17;;;;;;;;;;5047797;28;20049;-65
2022/03/14 00:37:35;;;;;;;4.83;3.27;;;;;;;;;;5034763;28;20049;-65
2022/03/14 00:40:03;;;;;;;6.13;3.07;;;;;;;;;;5043482;28;20041;-65
2022/03/14 00:42:29;;;;;;;4.87;3.10;;;;;;;;;;5033682;28;20056;-65
2022/03/14 00:44:55;;;;;;;4.70;3.30;;;;;;;;;;5040879;28;20040;-65
2022/03/14 00:47:22;;;;;;;5.27;2.70;;;;;;;;;;5040395;28;20068;-65
2022/03/14 00:49:48;;;;;;;5.20;3.07;;;;;;;;;;5045613;28;20045;-65
2022/03/14 00:52:17;;;;;;;4.50;3.30;;;;;;;;;;5048144;28;20549;-65
2022/03/14 00:54:44;;;;;;;6.73;3.90;;;;;;;;;;5047832;28;20128;-65
2022/03/14 00:57:11;;;;;;;6.23;3.40;;;;;;;;;;5045778;28;20044;-65
2022/03/14 00:59:39;;;;;;;7.90;5.10;;;;;;;;;;5043944;28;20099;-65
2022/03/14 01:02:05;;;;;;;4.67;3.33;;;;;;;;;;5047816;28;20110;-65
2022/03/14 01:04:31;;;;;;;3.83;3.13;;;;;;;;;;5052480;28;20049;-65
2022/03/14 01:06:57;;;;;;;4.53;3.33;;;;;;;;;;5051549;28;20045;-65
2022/03/14 01:09:23;;;;;;;4.47;3.10;;;;;;;;;;5051941;28;20041;-65
2022/03/14 01:11:50;;;;;;;6.20;3.57;;;;;;;;;;5045042;28;20824;-65
2022/03/14 01:14:16;;;;;;;5.23;3.60;;;;;;;;;;5039583;28;20400;-65
2022/03/14 01:16:42;;;;;;;7.27;3.97;;;;;;;;;;5051354;28;20044;-65
2022/03/14 01:19:11;;;;;;;5.57;3.17;;;;;;;;;;5050750;28;20419;-65
2022/03/14 01:21:38;;;;;;;4.50;3.40;;;;;;;;;;5051618;28;20106;-65
2022/03/14 01:24:04;;;;;;;5.50;3.13;;;;;;;;;;5038744;28;20124;-65
2022/03/14 01:26:30;;;;;;;3.93;2.93;;;;;;;;;;5050902;28;20856;-65
2022/03/14 01:28:57;;;;;;;5.60;3.30;;;;;;;;;;5050154;28;20045;-65
2022/03/14 01:31:23;;;;;;;6.67;3.27;;;;;;;;;;5051396;28;20065;-65
2022/03/14 01:33:49;;;;;;;4.67;3.07;;;;;;;;;;5051062;28;20071;-65
2022/03/14 01:36:15;;;;;;;4.17;3.33;;;;;;;;;;5050379;28;20062;-65
2022/03/14 01:38:41;;;;;;;4.53;3.30;;;;;;;;;;5051816;28;20048;-65
2022/03/14 01:41:10;;;;;;;4.87;3.00;;;;;;;;;;5050461;28;20075;-65
2022/03/14 01:43:36;;;;;;;4.57;3.03;;;;;;;;;;5051545;28;20083;-65
2022/03/14 01:46:02;;;;;;;6.57;3.70;;;;;;;;;;5050925;28;20737;-65
2022/03/14 01:48:28;;;;;;;4.53;3.37;;;;;;;;;;5050925;28;20049;-65
2022/03/14 01:50:55;;;;;;;4.43;3.23;;;;;;;;;;5051773;28;20057;-65
2022/03/14 01:53:21;;;;;;;5.20;3.47;;;;;;;;;;5048538;28;20106;-65
2022/03/14 01:55:49;;;;;;;8.23;3.83;;;;;;;;;;5051674;28;20156;-65
2022/03/14 01:58:16;;;;;;;5.30;3.67;;;;;;;;;;5050445;28;20052;-65
2022/03/14 02:00:42;;;;;;;8.23;3.63;;;;;;;;;;5045592;28;20057;-65
2022/03/14 02:03:08;;;;;;;4.57;3.37;;;;;;;;;;5051619;28;20056;-65
2022/03/14 02:05:36;;;;;;;5.97;3.97;;;;;;;;;;5050332;28;20045;-66
2022/03/14 02:08:03;;;;;;;5.87;3.53;;;;;;;;;;5049909;28;20056;-65
2022/03/14 02:10:29;;;;;;;4.50;3.50;;;;;;;;;;5050936;28;20124;-65
2022/03/14 02:12:55;;;;;;;6.20;3.50;;;;;;;;;;5050157;28;20045;-65
2022/03/14 02:15:21;;;;;;;4.70;3.10;;;;;;;;;;5050263;28;20051;-65
2022/03/14 02:17:47;;;;;;;5.33;3.00;;;;;;;;;;5053186;28;20112;-65
2022/03/14 02:20:13;;;;;;;5.33;3.27;;;;;;;;;;5054009;28;20563;-65
2022/03/14 02:22:39;;;;;;;4.23;3.00;;;;;;;;;;5052440;28;20053;-65
2022/03/14 02:25:14;;;;;;;6.77;4.03;;;;;;;;;;5050678;28;20044;-65
2022/03/14 02:27:40;;;;;;;4.47;3.33;;;;;;;;;;5050833;28;20075;-65
2022/03/14 02:30:06;;;;;;;4.37;3.43;;;;;;;;;;5047984;28;20041;-65
2022/03/14 02:32:33;;;;;;;4.00;2.90;;;;;;;;;;5049846;28;20060;-65
2022/03/14 02:34:59;;;;;;;5.17;3.03;;;;;;;;;;5050033;28;20592;-65
2022/03/14 02:37:25;;;;;;;5.60;3.40;;;;;;;;;;5048909;28;20071;-65
2022/03/14 02:39:51;;;;;;;5.07;3.30;;;;;;;;;;5050806;28;20053;-65
2022/03/14 02:42:17;;;;;;;6.20;3.13;;;;;;;;;;5050283;28;20041;-65
2022/03/14 02:44:43;;;;;;;5.83;3.10;;;;;;;;;;5050847;28;20045;-65
2022/03/14 02:47:10;;;;;;;4.83;3.20;;;;;;;;;;5050037;28;20140;-65
2022/03/14 02:49:37;;;;;;;4.27;2.80;;;;;;;;;;5048932;28;20057;-65
2022/03/14 02:52:03;;;;;;;4.83;3.43;;;;;;;;;;5035987;28;20053;-65
2022/03/14 02:54:29;;;;;;;5.00;2.90;;;;;;;;;;5044962;28;20495;-65
2022/03/14 02:56:56;;;;;;;3.30;2.50;;;;;;;;;;5050935;28;20048;-65
2022/03/14 02:59:23;;;;;;;4.47;3.27;;;;;;;;;;5050049;28;20048;-65
2022/03/14 03:01:49;;;;;;;4.13;2.97;;;;;;;;;;5049835;28;20045;-65
2022/03/14 03:04:15;;;;;;;4.97;3.23;;;;;;;;;;5049468;28;20040;-65
2022/03/14 03:06:42;;;;;;;5.17;3.33;;;;;;;;;;5048659;28;20056;-65
2022/03/14 03:09:09;;;;;;;6.73;3.33;;;;;;;;;;5050584;28;20467;-65
2022/03/14 03:11:35;;;;;;;5.03;3.43;;;;;;;;;;5047291;28;20083;-65
2022/03/14 03:14:01;;;;;;;5.50;3.60;;;;;;;;;;5049512;28;20049;-65
2022/03/14 03:16:27;;;;;;;4.10;3.00;;;;;;;;;;5050032;28;20048;-65
2022/03/14 03:18:54;;;;;;;4.30;3.20;;;;;;;;;;5064123;28;20608;-65
2022/03/14 03:21:20;;;;;;;5.67;3.13;;;;;;;;;;5069914;28;20058;-65
2022/03/14 03:23:46;;;;;;;4.80;3.43;;;;;;;;;;5052275;28;20463;-65
2022/03/14 03:26:12;;;;;;;4.50;2.97;;;;;;;;;;5047289;28;20079;-65
2022/03/14 03:28:38;;;;;;;4.87;2.93;;;;;;;;;;5036702;28;20048;-65
2022/03/14 03:31:05;;;;;;;5.47;3.40;;;;;;;;;;5048302;28;20041;-65
2022/03/14 03:33:31;;;;;;;4.37;2.87;;;;;;;;;;5049410;28;20044;-65
2022/03/14 03:35:58;;;;;;;5.57;2.60;;;;;;;;;;5046341;28;20053;-65
2022/03/14 03:38:24;;;;;;;4.37;3.20;;;;;;;;;;5048816;28;20055;-65
2022/03/14 03:40:50;;;;;;;4.60;2.90;;;;;;;;;;5048669;28;20045;-65
2022/03/14 03:43:17;;;;;;;3.70;2.23;;;;;;;;;;5049519;28;20040;-65
2022/03/14 03:45:43;;;;;;;3.80;2.33;;;;;;;;;;5048892;28;20568;-65
2022/03/14 03:48:09;;;;;;;5.03;2.77;;;;;;;;;;5046774;28;20810;-65
2022/03/14 03:50:35;;;;;;;5.00;2.90;;;;;;;;;;5048901;28;20041;-65
2022/03/14 03:53:01;;;;;;;3.67;2.60;;;;;;;;;;5048700;28;20056;-65
2022/03/14 03:55:27;;;;;;;3.70;2.53;;;;;;;;;;5049197;28;20041;-65
2022/03/14 03:57:53;;;;;;;4.50;2.90;;;;;;;;;;5047508;28;20045;-65
2022/03/14 04:00:20;;;;;;;5.17;3.10;;;;;;;;;;5049295;28;20048;-65
2022/03/14 04:02:46;;;;;;;3.40;2.40;;;;;;;;;;5048251;28;20415;-65
2022/03/14 04:05:16;;;;;;;4.67;3.10;;;;;;;;;;5048704;28;20051;-65
2022/03/14 04:07:42;;;;;;;4.17;2.87;;;;;;;;;;5049221;28;20089;-65
2022/03/14 04:10:09;;;;;;;3.83;3.20;;;;;;;;;;5046807;28;20094;-65
2022/03/14 04:12:37;;;;;;;5.10;3.47;;;;;;;;;;5048985;28;20452;-65
2022/03/14 04:15:05;;;;;;;4.03;2.73;;;;;;;;;;5048043;28;20045;-65
2022/03/14 04:17:32;;;;;;;5.93;2.70;;;;;;;;;;5048692;28;20091;-65
2022/03/14 04:20:00;;;;;;;3.43;2.43;;;;;;;;;;5044930;28;20068;-65
2022/03/14 04:22:27;;;;;;;3.57;2.63;;;;;;;;;;5045348;28;20533;-65
2022/03/14 04:24:53;;;;;;;4.93;3.00;;;;;;;;;;5048061;28;20045;-65
2022/03/14 04:27:19;;;;;;;4.57;3.03;;;;;;;;;;5049153;28;20041;-65
2022/03/14 04:29:46;;;;;;;4.63;2.70;;;;;;;;;;5047262;28;20063;-65
2022/03/14 04:32:12;;;;;;;5.07;2.73;;;;;;;;;;5048166;28;20064;-64
2022/03/14 04:34:38;;;;;;;6.63;2.73;;;;;;;;;;5046982;28;20052;-65
2022/03/14 04:37:05;;;;;;;4.70;2.77;;;;;;;;;;5047807;28;20041;-65
2022/03/14 04:39:31;;;;;;;6.30;3.03;;;;;;;;;;5045334;28;21041;-65
2022/03/14 04:41:59;;;;;;;3.93;2.77;;;;;;;;;;5042466;28;20048;-66
2022/03/14 04:44:25;;;;;;;4.37;2.87;;;;;;;;;;5042998;28;20399;-65
2022/03/14 04:46:51;;;;;;;4.10;3.00;;;;;;;;;;5046683;28;20060;-66
2022/03/14 04:49:17;;;;;;;4.40;2.87;;;;;;;;;;5044388;28;20115;-66
2022/03/14 04:51:43;;;;;;;4.37;3.30;;;;;;;;;;5040169;28;20053;-66
2022/03/14 04:54:09;;;;;;;7.73;3.30;;;;;;;;;;5040340;28;20495;-65
2022/03/14 04:56:35;;;;;;;4.43;3.13;;;;;;;;;;5045369;28;20045;-66
2022/03/14 04:59:04;;;;;;;5.20;3.33;;;;;;;;;;5046988;28;20048;-66
2022/03/14 05:01:30;;;;;;;5.20;3.23;;;;;;;;;;5047985;28;20045;-66
2022/03/14 05:03:57;;;;;;;5.30;3.20;;;;;;;;;;5047913;28;20056;-66
2022/03/14 05:06:23;;;;;;;5.93;4.07;;;;;;;;;;5047039;28;20051;-66
2022/03/14 05:08:49;;;;;;;5.13;3.87;;;;;;;;;;5068600;28;20051;-66
2022/03/14 05:11:16;;;;;;;6.93;3.40;;;;;;;;;;5058287;28;20037;-66
2022/03/14 05:13:42;;;;;;;5.50;3.93;;;;;;;;;;5048480;28;20056;-66
2022/03/14 05:16:08;;;;;;;6.03;4.57;;;;;;;;;;5047966;28;20041;-66
2022/03/14 05:18:34;;;;;;;6.00;4.57;;;;;;;;;;5063039;28;20114;-66
2022/03/14 05:21:01;;;;;;;6.03;4.73;;;;;;;;;;5048695;28;20534;-66
2022/03/14 05:23:28;;;;;;;6.13;4.40;;;;;;;;;;5047537;28;20049;-66
2022/03/14 05:25:54;;;;;;;6.20;4.40;;;;;;;;;;5048227;28;20070;-66
2022/03/14 05:28:21;;;;;;;7.30;4.30;;;;;;;;;;5055434;28;20083;-66
2022/03/14 05:30:47;;;;;;;7.77;5.17;;;;;;;;;;5068317;28;20051;-66
2022/03/14 05:33:13;;;;;;;7.10;4.63;;;;;;;;;;5059936;28;20049;-66
2022/03/14 05:35:40;;;;;;;6.10;4.73;;;;;;;;;;5047984;28;20045;-66
2022/03/14 05:38:06;;;;;;;6.20;4.70;;;;;;;;;;5046685;28;20041;-66
2022/03/14 05:40:32;;;;;;;5.80;4.37;;;;;;;;;;5046233;28;20057;-66
2022/03/14 05:42:58;;;;;;;5.73;4.50;;;;;;;;;;5046726;28;20148;-66
2022/03/14 05:45:24;;;;;;;5.90;4.67;;;;;;;;;;5046250;28;20041;-66
2022/03/14 05:47:51;;;;;;;7.43;5.00;;;;;;;;;;5047021;28;20805;-66
2022/03/14 05:50:17;;;;;;;6.70;4.93;;;;;;;;;;5051241;28;20128;-66
2022/03/14 05:52:43;;;;;;;7.53;5.23;;;;;;;;;;5051696;28;20045;-66
2022/03/14 05:55:10;;;;;;;5.77;4.73;;;;;;;;;;5051823;28;20044;-66
2022/03/14 05:57:36;;;;;;;6.63;4.77;;;;;;;;;;5051578;28;20127;-66
2022/03/14 06:00:04;;;;;;;6.93;4.90;;;;;;;;;;5054255;28;20577;-66
2022/03/14 06:02:30;;;;;;;7.20;4.70;;;;;;;;;;5059272;28;20055;-66
2022/03/14 06:04:56;;;;;;;7.20;5.10;;;;;;;;;;5050634;28;20041;-66
2022/03/14 06:07:22;;;;;;;6.80;4.90;;;;;;;;;;5055612;28;20048;-66
2022/03/14 06:09:49;;;;;;;6.67;5.13;;;;;;;;;;5065791;28;20056;-66
2022/03/14 06:12:28;;;;;;;6.77;5.17;;;;;;;;;;5049113;28;20049;-66
2022/03/14 06:14:55;;;;;;;9.07;5.73;;;;;;;;;;5041587;28;20106;-66
2022/03/14 06:17:21;;;;;;;6.10;4.60;;;;;;;;;;5045523;28;20052;-66
2022/03/14 06:19:48;;;;;;;7.43;5.57;;;;;;;;;;5043371;28;20052;-66
2022/03/14 06:22:15;;;;;;;8.27;6.07;;;;;;;;;;5044220;28;20053;-66
2022/03/14 06:24:41;;;;;;;7.23;5.60;;;;;;;;;;5046049;28;20069;-66
2022/03/14 06:27:07;;;;;;;8.20;5.30;;;;;;;;;;5042809;28;20171;-66
2022/03/14 06:29:33;;;;;;;8.53;6.37;;;;;;;;;;5045600;28;20055;-66
2022/03/14 06:31:59;;;;;;;8.57;6.50;;;;;;;;;;5044925;28;20069;-66
2022/03/14 06:34:26;;;;;;;8.87;6.03;;;;;;;;;;5037818;28;20057;-66
2022/03/14 06:36:52;;;;;;;10.07;6.83;;;;;;;;;;5039239;28;20045;-66
2022/03/14 06:39:18;;;;;;;7.60;5.90;;;;;;;;;;5047178;28;20049;-66
2022/03/14 06:41:45;;;;;;;7.93;6.00;;;;;;;;;;5049073;28;20477;-66
2022/03/14 06:44:13;;;;;;;8.53;5.87;;;;;;;;;;5049348;28;20048;-65
2022/03/14 06:46:39;;;;;;;7.27;5.73;;;;;;;;;;5049934;28;20071;-65
2022/03/14 06:49:06;;;;;;;9.50;7.00;;;;;;;;;;5049044;28;20045;-65
2022/03/14 06:51:33;;;;;;;10.67;6.57;;;;;;;;;;5049922;28;20598;-65
2022/03/14 06:53:59;;;;;;;8.73;6.53;;;;;;;;;;5049828;28;20056;-65
2022/03/14 06:56:25;;;;;;;8.97;6.50;;;;;;;;;;5049511;28;20045;-65
2022/03/14 06:58:52;;;;;;;8.03;6.40;;;;;;;;;;5049909;28;20058;-65
2022/03/14 07:01:18;;;;;;;8.77;6.53;;;;;;;;;;5049027;28;20057;-65
2022/03/14 07:03:44;;;;;;;8.53;6.50;;;;;;;;;;5047748;28;20494;-65
2022/03/14 07:06:11;;;;;;;10.67;6.97;;;;;;;;;;5049314;28;20049;-65
2022/03/14 07:08:37;;;;;;;8.43;6.33;;;;;;;;;;5049962;28;20510;-65
2022/03/14 07:11:03;;;;;;;9.67;6.20;;;;;;;;;;5047560;28;20454;-65
2022/03/14 07:13:29;;;;;;;7.87;6.47;;;;;;;;;;5049910;28;20052;-65
2022/03/14 07:15:55;;;;;;;10.33;6.60;;;;;;;;;;5048403;28;20056;-65
2022/03/14 07:18:21;;;;;;;8.47;6.90;;;;;;;;;;5049632;28;20045;-65
2022/03/14 07:20:47;;;;;;;9.43;6.57;;;;;;;;;;5048932;28;20041;-66
2022/03/14 07:23:13;;;;;;;9.47;6.17;;;;;;;;;;5048961;28;20045;-65
2022/03/14 07:25:39;;;;;;;9.30;7.07;;;;;;;;;;5047099;28;20056;-65
2022/03/14 07:28:07;;;;;;;9.53;6.60;;;;;;;;;;5049038;28;20047;-65
2022/03/14 07:30:33;;;;;;;9.83;6.80;;;;;;;;;;5048899;28;20055;-65
2022/03/14 07:32:59;;;;;;;9.03;6.70;;;;;;;;;;5048723;28;20496;-65
2022/03/14 07:35:26;;;;;;;9.20;7.40;;;;;;;;;;5046565;28;20128;-65
2022/03/14 07:37:53;;;;;;;9.37;7.23;;;;;;;;;;5048049;28;20530;-65
2022/03/14 07:40:19;;;;;;;8.70;6.80;;;;;;;;;;5049435;28;20068;-65
2022/03/14 07:42:46;;;;;;;10.87;7.13;;;;;;;;;;5048362;28;20052;-65
2022/03/14 07:45:14;;;;;;;9.90;7.57;;;;;;;;;;5049159;28;20072;-65
2022/03/14 07:47:40;;;;;;;9.37;7.23;;;;;;;;;;5048450;28;20139;-65
2022/03/14 07:50:07;;;;;;;9.53;7.80;;;;;;;;;;5048783;28;20132;-65
2022/03/14 07:52:33;;;;;;;10.30;7.80;;;;;;;;;;5048921;28;20040;-65
2022/03/14 07:55:00;;;;;;;18.47;8.13;;;;;;;;;;5049177;28;20079;-65
2022/03/14 07:57:27;;;;;;;10.33;8.00;;;;;;;;;;5048474;28;21029;-65
2022/03/14 07:59:53;;;;;;;11.40;8.00;;;;;;;;;;5049124;28;20045;-66
2022/03/14 08:02:20;;;;;;;12.00;7.73;;;;;;;;;;5044701;28;20415;-65
2022/03/14 08:04:46;;;;;;;14.27;8.37;;;;;;;;;;5048581;28;20507;-65
2022/03/14 08:07:13;;;;;;;13.67;9.27;;;;;;;;;;5048127;28;20056;-65
2022/03/14 08:09:39;;;;;;;13.13;9.53;;;;;;;;;;5033086;28;20049;-65
2022/03/14 08:12:05;;;;;;;14.00;10.50;;;;;;;;;;5042822;28;20077;-65
2022/03/14 08:14:32;;;;;;;15.60;10.57;;;;;;;;;;5047473;28;20954;-65
2022/03/14 08:16:58;;;;;;;13.63;10.23;;;;;;;;;;5048546;28;20068;-65
2022/03/14 08:19:25;;;;;;;15.53;10.90;;;;;;;;;;5048342;28;20057;-65
2022/03/14 08:21:51;;;;;;;15.37;11.63;;;;;;;;;;5048663;28;20048;-65
2022/03/14 08:24:17;;;;;;;17.30;11.50;;;;;;;;;;5048345;28;20049;-65
2022/03/14 08:26:44;;;;;;;16.23;12.07;;;;;;;;;;5048264;28;20052;-65
2022/03/14 08:29:10;;;;;;;19.87;13.77;;;;;;;;;;5048568;28;20049;-66
2022/03/14 08:31:36;;;;;;;21.23;15.43;;;;;;;;;;5048428;28;20419;-65
2022/03/14 08:34:03;;;;;;;23.27;16.63;;;;;;;;;;5047096;28;20423;-65
2022/03/14 08:36:29;;;;;;;29.67;17.60;;;;;;;;;;5047740;28;20133;-65
2022/03/14 08:38:56;;;;;;;26.20;18.60;;;;;;;;;;5048520;28;20132;-65
2022/03/14 08:41:22;;;;;;;25.27;18.37;;;;;;;;;;5046611;28;20041;-66
2022/03/14 08:43:48;;;;;;;26.37;19.63;;;;;;;;;;5048333;28;20044;-65
2022/03/14 08:46:18;;;;;;;26.33;18.47;;;;;;;;;;5048297;28;20052;-66
2022/03/14 08:48:44;;;;;;;24.60;18.93;;;;;;;;;;5047997;28;20053;-66
2022/03/14 08:51:10;;;;;;;25.47;19.10;;;;;;;;;;5047618;28;20041;-66
2022/03/14 08:53:36;;;;;;;27.53;18.23;;;;;;;;;;5047850;28;20033;-66
2022/03/14 08:56:03;;;;;;;20.70;13.67;;;;;;;;;;5047640;28;20041;-66
2022/03/14 08:58:29;;;;;;;21.50;14.93;;;;;;;;;;5047603;28;21058;-66
2022/03/14 09:00:57;;;;;;;29.10;15.87;;;;;;;;;;5046582;28;20095;-66
2022/03/14 09:03:23;;;;;;;24.10;15.03;;;;;;;;;;5045710;28;20059;-66
2022/03/14 09:05:49;;;;;;;30.00;15.70;;;;;;;;;;5047641;28;20048;-67
2022/03/14 09:08:15;;;;;;;26.40;15.43;;;;;;;;;;5047733;28;20049;-67
2022/03/14 09:10:42;;;;;;;45.57;19.60;;;;;;;;;;5046010;28;20045;-67
2022/03/14 09:13:08;;;;;;;40.07;20.67;;;;;;;;;;5046750;28;20119;-67
2022/03/14 09:15:34;;;;;;;44.03;21.70;;;;;;;;;;5047769;28;20045;-67
2022/03/14 09:18:01;;;;;;;41.33;21.33;;;;;;;;;;5047471;28;20055;-67
2022/03/14 09:20:28;;;;;;;54.53;24.97;;;;;;;;;;5047986;28;20083;-68
2022/03/14 09:22:54;;;;;;;45.37;24.00;;;;;;;;;;5049627;28;20040;-68
2022/03/14 09:25:21;;;;;;;50.43;25.20;;;;;;;;;;5051556;28;20406;-69
2022/03/14 09:27:48;;;;;;;40.40;21.87;;;;;;;;;;5051577;28;20476;-68
2022/03/14 09:30:15;;;;;;;51.00;22.23;;;;;;;;;;5051980;28;20125;-68
2022/03/14 09:32:42;;;;;;;41.37;21.17;;;;;;;;;;5051371;28;20049;-68
2022/03/14 09:35:09;;;;;;;41.37;21.43;;;;;;;;;;5066756;28;20079;-68
2022/03/14 09:37:39;;;;;;;38.23;19.57;;;;;;;;;;5066756;28;20434;-68
2022/03/14 09:40:10;;;;;;;39.00;18.53;;;;;;;;;;5050780;28;20040;-67
2022/03/14 09:42:37;;;;;;;38.63;16.77;;;;;;;;;;5051239;28;20076;-67
2022/03/14 09:45:04;;;;;;;34.23;15.60;;;;;;;;;;5051103;28;20051;-67
2022/03/14 09:47:30;;;;;;;33.57;14.67;;;;;;;;;;5050785;28;20133;-67
2022/03/14 09:49:57;;;;;;;24.60;12.30;;;;;;;;;;5051443;28;20041;-67
2022/03/14 09:52:23;;;;;;;22.90;10.93;;;;;;;;;;5051099;28;20044;-67
2022/03/14 09:54:50;;;;;;;26.20;11.70;;;;;;;;;;5049758;28;20063;-68
2022/03/14 09:57:16;;;;;;;28.57;10.93;;;;;;;;;;5051162;28;20094;-67
2022/03/14 09:59:42;;;;;;;23.17;9.97;;;;;;;;;;5051165;28;20068;-67
2022/03/14 10:02:12;;;;;;;25.70;10.70;;;;;;;;;;5051008;28;20537;-67
2022/03/14 10:04:39;;;;;;;26.30;10.53;;;;;;;;;;5050234;28;20148;-67
2022/03/14 10:07:06;;;;;;;18.60;8.80;;;;;;;;;;5066430;28;20471;-67
2022/03/14 10:09:34;;;;;;;20.67;7.33;;;;;;;;;;5050701;28;20053;-67
2022/03/14 10:12:00;;;;;;;27.33;8.93;;;;;;;;;;5050876;28;20055;-67
2022/03/14 10:14:26;;;;;;;17.50;6.70;;;;;;;;;;5050689;28;20043;-67
2022/03/14 10:16:56;;;;;;;20.80;8.50;;;;;;;;;;5050544;28;20124;-67
2022/03/14 10:19:29;;;;;;;19.07;6.73;;;;;;;;;;5050267;28;20049;-67
2022/03/14 10:21:55;;;;;;;16.98;6.30;;;;;;;;;;5050771;28;20037;-67
2022/03/14 10:24:22;;;;;;;18.83;5.90;;;;;;;;;;5050582;28;20049;-67
2022/03/14 10:26:49;;;;;;;13.67;5.63;;;;;;;;;;5050571;28;20052;-67
2022/03/14 10:29:16;;;;;;;19.07;6.77;;;;;;;;;;5049898;28;20080;-67
2022/03/14 10:31:45;;;;;;;17.63;5.77;;;;;;;;;;5050244;28;20601;-67
2022/03/14 10:34:15;;;;;;;14.33;6.00;;;;;;;;;;5049862;28;20103;-67
2022/03/14 10:36:43;;;;;;;14.13;4.40;;;;;;;;;;5050255;28;20052;-67
2022/03/14 10:39:15;;;;;;;17.43;5.73;;;;;;;;;;5050347;28;20049;-67
2022/03/14 10:41:42;;;;;;;15.13;4.50;;;;;;;;;;5050470;28;20057;-67
2022/03/14 10:44:08;;;;;;;15.43;4.63;;;;;;;;;;5050200;28;20502;-67
2022/03/14 10:46:39;;;;;;;13.57;4.27;;;;;;;;;;5050071;28;20235;-67
2022/03/14 10:49:09;;;;;;;18.00;4.90;;;;;;;;;;5049885;28;20045;-67
2022/03/14 10:51:51;;;;;;;17.53;4.77;;;;;;;;;;5050355;28;20119;-67
2022/03/14 10:54:18;;;;;;;16.67;4.43;;;;;;;;;;5050305;28;20045;-67
2022/03/14 10:56:59;;;;;;;16.07;4.77;;;;;;;;;;5049872;28;20049;-66
2022/03/14 10:59:40;;;;;;;14.40;4.40;;;;;;;;;;5049847;28;20135;-67
2022/03/14 11:02:15;;;;;;;18.73;6.07;;;;;;;;;;5049932;28;20049;-67
2022/03/14 11:04:41;;;;;;;10.93;4.20;;;;;;;;;;5050010;28;20067;-67
2022/03/14 11:07:07;;;;;;;13.17;4.23;;;;;;;;;;5049813;28;20053;-67
2022/03/14 11:09:50;;;;;;;14.63;4.70;;;;;;;;;;5049316;28;20080;-67
2022/03/14 11:12:17;;;;;;;14.60;4.50;;;;;;;;;;5049730;28;20045;-67
2022/03/14 11:14:52;;;;;;;11.40;4.17;;;;;;;;;;5049532;28;20041;-66
2022/03/14 11:17:25;;;;;;;11.13;4.53;;;;;;;;;;5049639;28;20091;-66
2022/03/14 11:19:51;;;;;;;;;;;;;;;;;;5049755;28;20096;-66
2022/03/14 11:22:18;;;;;;;19.57;5.07;;;;;;;;;;5049669;28;19928;-66
2022/03/14 11:24:49;;;;;;;11.93;4.10;;;;;;;;;;5047208;28;20044;-66
2022/03/14 11:27:18;;;;;;;13.33;5.80;;;;;;;;;;5044069;28;20453;-66
2022/03/14 11:29:45;;;;;;;17.90;6.47;;;;;;;;;;5048184;28;20044;-66
2022/03/14 11:32:11;;;;;;;13.07;5.50;;;;;;;;;;5049255;28;20065;-66
2022/03/14 11:34:37;;;;;;;16.73;6.57;;;;;;;;;;5049176;28;20043;-66
2022/03/14 11:37:04;;;;;;;14.07;6.30;;;;;;;;;;5049335;28;20045;-66
2022/03/14 11:39:31;;;;;;;21.17;7.90;;;;;;;;;;5049662;28;20128;-67
2022/03/14 11:41:59;;;;;;;14.73;7.00;;;;;;;;;;5049240;28;20048;-67
2022/03/14 11:44:25;;;;;;;18.90;8.07;;;;;;;;;;5048273;28;20060;-66
2022/03/14 11:46:53;;;;;;;15.50;9.00;;;;;;;;;;5048492;28;20155;-67
2022/03/14 11:49:19;;;;;;;17.77;9.60;;;;;;;;;;5049109;28;20102;-67
2022/03/14 11:51:45;;;;;;;19.13;10.80;;;;;;;;;;5049064;28;20049;-66
2022/03/14 11:54:12;;;;;;;17.30;11.73;;;;;;;;;;5049345;28;20048;-67
2022/03/14 11:56:38;;;;;;;13.83;9.93;;;;;;;;;;5049202;28;20052;-66
2022/03/14 11:59:07;;;;;;;19.13;10.67;;;;;;;;;;5049401;28;20469;-66
2022/03/14 12:01:34;;;;;;;16.63;10.27;;;;;;;;;;5047542;28;20133;-66
2022/03/14 12:04:05;;;;;;;16.07;10.60;;;;;;;;;;5049197;28;20036;-66
2022/03/14 12:06:46;;;;;;;19.67;11.93;;;;;;;;;;5048623;28;20053;-66
2022/03/14 12:09:25;;;;;;;21.73;12.07;;;;;;;;;;5049059;28;20053;-66
2022/03/14 12:11:54;;;;;;;16.40;10.63;;;;;;;;;;5048751;28;20562;-66
2022/03/14 12:14:39;;;;;;;16.93;11.87;;;;;;;;;;5049037;28;20516;-66
2022/03/14 12:17:11;;;;;;;18.90;12.20;;;;;;;;;;5048088;28;20044;-67
2022/03/14 12:19:40;;;;;;;19.23;12.40;;;;;;;;;;5047742;28;20360;-66
2022/03/14 12:22:07;;;;;;;18.23;11.53;;;;;;;;;;5048550;28;20075;-67
2022/03/14 12:24:36;;;;;;;18.67;12.10;;;;;;;;;;5047398;28;20495;-67
2022/03/14 12:27:02;;;;;;;22.27;12.17;;;;;;;;;;5048138;28;20045;-66
2022/03/14 12:29:37;;;;;;;16.57;10.83;;;;;;;;;;5035100;28;20045;-67
2022/03/14 12:32:22;;;;;;;20.20;10.73;;;;;;;;;;5028461;28;20487;-67
2022/03/14 12:35:01;;;;;;;25.00;9.87;;;;;;;;;;5035193;28;20041;-66
2022/03/14 12:37:47;;;;;;;17.90;9.50;;;;;;;;;;5047867;28;20141;-65
2022/03/14 12:40:20;;;;;;;17.27;10.03;;;;;;;;;;5048388;28;20059;-68
2022/03/14 12:42:47;;;;;;;15.50;9.20;;;;;;;;;;5048482;28;20060;-65
2022/03/14 12:45:16;;;;;;;14.73;8.80;;;;;;;;;;5051857;28;20510;-67
2022/03/14 12:47:48;;;;;;;18.13;9.47;;;;;;;;;;5056289;28;20340;-66
2022/03/14 12:50:34;;;;;;;23.50;8.80;;;;;;;;;;5048091;28;20072;-66
2022/03/14 12:53:00;;;;;;;14.83;8.10;;;;;;;;;;5047641;28;20055;-66
2022/03/14 12:55:26;;;;;;;19.07;9.60;;;;;;;;;;5046810;28;20515;-66
2022/03/14 12:57:52;;;;;;;13.77;8.97;;;;;;;;;;5049866;28;20045;-66
2022/03/14 13:00:19;;;;;;;12.93;8.40;;;;;;;;;;5051491;28;20642;-66
2022/03/14 13:02:45;;;;;;;16.23;7.60;;;;;;;;;;5051043;28;20045;-66
2022/03/14 13:05:11;;;;;;;16.43;9.10;;;;;;;;;;5051136;28;20853;-66
2022/03/14 13:07:37;;;;;;;14.17;7.40;;;;;;;;;;5050568;28;20060;-66
2022/03/14 13:10:03;;;;;;;15.37;8.07;;;;;;;;;;5050251;28;20595;-66
2022/03/14 13:12:29;;;;;;;13.83;7.90;;;;;;;;;;5051524;28;20063;-66
2022/03/14 13:15:06;;;;;;;25.07;8.73;;;;;;;;;;5051213;28;20044;-66
2022/03/14 13:17:32;;;;;;;13.97;8.00;;;;;;;;;;5046911;28;20051;-66
2022/03/14 13:19:58;;;;;;;17.83;7.93;;;;;;;;;;5052032;28;20125;-66
2022/03/14 13:22:24;;;;;;;15.63;5.23;;;;;;;;;;5050921;28;20444;-66
2022/03/14 13:24:53;;;;;;;17.20;6.00;;;;;;;;;;5051255;28;20107;-66
2022/03/14 13:27:26;;;;;;;16.93;5.20;;;;;;;;;;5051207;28;20044;-66
2022/03/14 13:29:54;;;;;;;12.20;5.60;;;;;;;;;;5049169;28;20056;-66
2022/03/14 13:32:21;;;;;;;15.27;5.83;;;;;;;;;;5051887;28;20061;-66
2022/03/14 13:35:06;;;;;;;14.87;6.17;;;;;;;;;;5051816;28;20052;-66
2022/03/14 13:37:32;;;;;;;16.53;7.30;;;;;;;;;;5049908;28;20402;-66
2022/03/14 13:39:58;;;;;;;14.47;8.07;;;;;;;;;;5049894;28;20072;-66
2022/03/14 13:42:24;;;;;;;13.47;8.10;;;;;;;;;;5049945;28;20128;-66
2022/03/14 13:44:50;;;;;;;17.27;8.20;;;;;;;;;;5050524;28;20041;-66
2022/03/14 13:47:22;;;;;;;17.30;8.10;;;;;;;;;;5050104;28;20384;-66
2022/03/14 13:50:00;;;;;;;18.92;7.43;;;;;;;;;;5050465;28;20095;-66
2022/03/14 13:52:26;;;;;;;13.07;7.03;;;;;;;;;;5050569;28;20102;-66
2022/03/14 13:54:53;;;;;;;17.13;7.20;;;;;;;;;;5051656;28;20088;-66
2022/03/14 13:57:22;;;;;;;17.60;7.60;;;;;;;;;;5050577;28;20045;-66
2022/03/14 13:59:49;;;;;;;13.90;7.03;;;;;;;;;;5051368;28;20049;-66
2022/03/14 14:02:16;;;;;;;15.57;7.77;;;;;;;;;;5051178;28;20506;-66
2022/03/14 14:04:45;;;;;;;14.90;7.47;;;;;;;;;;5051201;28;20052;-66
2022/03/14 14:07:16;;;;;;;13.10;5.93;;;;;;;;;;5051213;28;20048;-66
2022/03/14 14:09:43;;;;;;;12.73;6.17;;;;;;;;;;5049705;28;20856;-66
2022/03/14 14:12:18;;;;;;;13.37;6.00;;;;;;;;;;5050843;28;20087;-66
2022/03/14 14:14:56;;;;;;;15.60;6.20;;;;;;;;;;5050911;28;20507;-66
2022/03/14 14:17:26;;;;;;;12.87;6.30;;;;;;;;;;5051116;28;20128;-66
2022/03/14 14:20:02;;;;;;;15.73;6.07;;;;;;;;;;5050688;28;20096;-66
2022/03/14 14:22:54;;;;;;;16.43;6.17;;;;;;;;;;5050590;28;20423;-66
2022/03/14 14:25:21;;;;;;;15.83;5.90;;;;;;;;;;5050570;28;20053;-66
2022/03/14 14:28:00;;;;;;;11.67;5.63;;;;;;;;;;5050535;28;20041;-66
2022/03/14 14:30:29;;;;;;;14.83;5.63;;;;;;;;;;5050362;28;20087;-66
2022/03/14 14:32:55;;;;;;;14.23;5.57;;;;;;;;;;5050225;28;20534;-66
2022/03/14 14:35:22;;;;;;;15.60;5.40;;;;;;;;;;5049421;28;20048;-66
2022/03/14 14:37:48;;;;;;;21.70;5.70;;;;;;;;;;5050585;28;20065;-66